Time;durP1;ratioP1;P1;durP2;ratioP2;P2;SDS_P1;SDS_P2;PMS_P1;PMS_P2;Temp;Humidity;BMP_temperature;BMP_pressure;BME280_temperature;BME280_humidity;BME280_pressure;Samples;Min_cycle;Max_cycle;Signal;HPM_P1;HPM_P2
2021/12/03 00:01:58;;;;;;;0.90;0.90;;;3.10;99.90;3.70;100986.00;;;;5034618;28;20523;-71
2021/12/03 00:04:29;;;;;;;0.80;0.80;;;3.40;99.90;3.00;100982.00;;;;5033954;28;20594;-71
2021/12/03 00:07:01;;;;;;;1.63;1.63;;;3.30;99.90;3.40;100937.00;;;;5033946;28;20229;-71
2021/12/03 00:09:34;;;;;;;0.90;0.90;;;3.40;99.90;3.00;100920.00;;;;5033821;28;20179;-71
2021/12/03 00:12:01;;;;;;;0.80;0.80;;;3.30;99.90;3.10;100964.00;;;;5034022;28;20195;-71
2021/12/03 00:14:35;;;;;;;0.80;0.80;;;3.20;99.90;2.70;100954.00;;;;5033909;28;20245;-70
2021/12/03 00:17:11;;;;;;;2.03;1.93;;;3.10;99.90;2.70;100960.00;;;;5033954;28;20205;-70
2021/12/03 00:19:42;;;;;;;0.80;0.80;;;3.00;99.90;2.70;100918.00;;;;5035564;28;20174;-70
2021/12/03 00:22:16;;;;;;;0.80;0.80;;;2.90;99.90;2.80;100915.00;;;;5034279;28;20195;-70
2021/12/03 00:24:48;;;;;;;1.20;1.20;;;2.90;99.90;2.60;100974.00;;;;5033773;28;20206;-70
2021/12/03 00:27:18;;;;;;;0.70;0.70;;;2.90;99.90;2.40;100927.00;;;;5033239;28;20217;-70
2021/12/03 00:29:51;;;;;;;0.80;0.80;;;2.80;99.90;3.40;100983.00;;;;5034152;28;20541;-69
2021/12/03 00:32:23;;;;;;;0.90;0.90;;;3.20;99.90;3.30;100951.00;;;;5033733;28;20285;-70
2021/12/03 00:34:57;;;;;;;0.90;0.90;;;3.20;99.90;3.60;100985.00;;;;5033283;28;20179;-69
2021/12/03 00:37:25;;;;;;;0.80;0.80;;;3.30;99.90;3.50;100990.00;;;;5032923;28;20290;-70
2021/12/03 00:39:52;;;;;;;3.27;3.07;;;3.40;99.90;3.00;100987.00;;;;5035146;28;20224;-69
2021/12/03 00:42:26;;;;;;;1.57;1.57;;;3.30;99.90;3.10;100997.00;;;;5032287;28;20201;-70
2021/12/03 00:44:57;;;;;;;0.80;0.80;;;3.30;99.90;3.20;101001.00;;;;5015939;28;20641;-69
2021/12/03 00:47:29;;;;;;;1.00;1.00;;;3.30;99.90;3.40;101000.00;;;;5034726;28;20205;-69
2021/12/03 00:50:00;;;;;;;2.00;1.07;;;3.40;99.90;4.00;100993.00;;;;5032418;28;20206;-69
2021/12/03 00:52:32;;;;;;;1.83;1.73;;;3.70;99.90;2.80;100948.00;;;;5032549;28;20655;-70
2021/12/03 00:55:06;;;;;;;0.70;0.70;;;3.30;99.90;3.10;100972.00;;;;5032838;28;20191;-70
2021/12/03 00:57:38;;;;;;;0.80;0.80;;;3.20;99.90;3.40;100985.00;;;;5032204;28;20902;-70
2021/12/03 01:00:23;;;;;;;1.30;1.20;;;3.30;99.90;3.40;100988.00;;;;5032208;28;20249;-71
2021/12/03 01:02:51;;;;;;;1.43;1.43;;;3.40;99.90;3.40;100998.00;;;;5016882;28;20193;-70
2021/12/03 01:05:21;;;;;;;0.80;0.80;;;3.30;99.90;2.90;100940.00;;;;5033381;28;20171;-69
2021/12/03 01:07:52;;;;;;;0.80;0.80;;;3.10;99.90;2.80;100981.00;;;;5031860;28;20201;-69
2021/12/03 01:10:22;;;;;;;1.13;1.13;;;3.00;99.90;3.10;100982.00;;;;5033066;28;20187;-70
2021/12/03 01:12:53;;;;;;;0.73;0.73;;;3.00;99.90;2.90;100985.00;;;;5016097;28;20229;-70
2021/12/03 01:15:33;;;;;;;1.27;1.27;;;3.10;99.90;2.90;100988.00;;;;5031898;28;20650;-71
2021/12/03 01:18:05;;;;;;;0.90;0.90;;;2.90;99.90;3.10;100986.00;;;;5031994;28;20175;-71
2021/12/03 01:20:38;;;;;;;0.90;0.90;;;3.00;99.90;3.70;100996.00;;;;5032888;28;20185;-71
2021/12/03 01:23:12;;;;;;;1.50;1.50;;;3.30;99.90;3.10;100991.00;;;;5032517;28;20195;-71
2021/12/03 01:25:40;;;;;;;1.27;1.27;;;3.40;99.90;2.60;100984.00;;;;5031977;28;20213;-70
2021/12/03 01:28:12;;;;;;;0.70;0.70;;;3.00;99.90;2.20;100985.00;;;;5032331;28;20260;-70
2021/12/03 01:30:44;;;;;;;1.20;1.20;;;2.80;99.90;2.30;100984.00;;;;5032935;28;20189;-70
2021/12/03 01:33:19;;;;;;;0.70;0.70;;;2.70;99.90;2.40;100985.00;;;;5032892;28;20202;-70
2021/12/03 01:35:51;;;;;;;1.20;1.20;;;2.80;99.90;2.50;100974.00;;;;5031918;28;20178;-70
2021/12/03 01:38:20;;;;;;;0.70;0.70;;;2.80;99.90;2.30;100985.00;;;;5032108;28;20221;-70
2021/12/03 01:40:52;;;;;;;1.33;1.23;;;2.80;99.90;2.40;100991.00;;;;5016268;28;20179;-70
2021/12/03 01:43:24;;;;;;;0.60;0.60;;;2.80;99.90;2.40;100996.00;;;;5032688;28;20187;-70
2021/12/03 01:46:00;;;;;;;6.97;1.97;;;2.80;99.90;2.30;100984.00;;;;5015453;28;20639;-70
2021/12/03 01:48:30;;;;;;;0.50;0.50;;;2.80;99.90;3.00;100988.00;;;;5033470;28;20179;-70
2021/12/03 01:51:04;;;;;;;0.60;0.60;;;3.00;99.90;2.90;100980.00;;;;5032788;28;20179;-71
2021/12/03 01:53:34;;;;;;;2.63;1.53;;;3.10;99.90;2.70;100978.00;;;;5032051;28;20209;-70
2021/12/03 01:56:11;;;;;;;1.33;1.33;;;3.10;99.90;2.50;100983.00;;;;5032439;28;20624;-70
2021/12/03 01:58:48;;;;;;;1.53;1.43;;;2.90;99.90;2.80;100942.00;;;;5016402;28;20597;-71
2021/12/03 02:01:25;;;;;;;2.37;2.23;;;3.00;99.90;2.40;100958.00;;;;5032664;28;20217;-71
2021/12/03 02:04:00;;;;;;;0.80;0.80;;;2.90;99.90;3.00;100986.00;;;;5031399;28;20194;-71
2021/12/03 02:06:30;;;;;;;0.83;0.83;;;3.10;99.90;2.70;101000.00;;;;5032062;28;20186;-70
2021/12/03 02:09:00;;;;;;;1.47;1.37;;;3.10;99.90;2.30;100998.00;;;;5032272;28;20218;-70
2021/12/03 02:11:27;;;;;;;1.30;1.30;;;3.00;99.90;2.60;100996.00;;;;5032354;28;20194;-70
2021/12/03 02:13:59;;;;;;;5.63;5.23;;;3.00;99.90;2.70;100996.00;;;;5032941;28;20619;-70
2021/12/03 02:16:30;;;;;;;1.10;1.10;;;3.00;99.90;2.40;100941.00;;;;5031827;28;20178;-70
2021/12/03 02:19:01;;;;;;;0.83;0.83;;;2.90;99.90;2.50;100966.00;;;;5031557;28;20183;-70
2021/12/03 02:21:33;;;;;;;0.60;0.60;;;2.90;99.90;2.30;100954.00;;;;5032915;28;20183;-70
2021/12/03 02:23:59;;;;;;;0.90;0.90;;;2.80;99.90;2.50;100964.00;;;;5015270;28;20616;-71
2021/12/03 02:26:30;;;;;;;0.80;0.80;;;2.90;99.90;2.10;100971.00;;;;5033705;28;20197;-70
2021/12/03 02:28:59;;;;;;;2.47;2.33;;;2.80;99.90;2.10;100998.00;;;;5014376;28;20190;-70
2021/12/03 02:31:28;;;;;;;0.73;0.73;;;2.80;99.90;2.50;100934.00;;;;5031843;28;20210;-70
2021/12/03 02:34:02;;;;;;;1.10;1.10;;;2.80;99.90;2.40;100976.00;;;;5032906;28;20235;-70
2021/12/03 02:36:31;;;;;;;2.03;1.93;;;2.90;99.90;2.30;100989.00;;;;5031035;28;20181;-70
2021/12/03 02:38:57;;;;;;;2.87;2.63;;;2.90;99.90;2.30;100996.00;;;;5031836;28;20179;-69
2021/12/03 02:41:27;;;;;;;1.50;1.40;;;2.80;99.90;2.60;100992.00;;;;5031861;28;20699;-69
2021/12/03 02:44:02;;;;;;;4.53;2.13;;;3.00;99.90;2.70;100998.00;;;;5032302;28;20217;-69
2021/12/03 02:46:31;;;;;;;1.80;1.70;;;3.10;99.90;2.80;100960.00;;;;5014996;28;20190;-69
2021/12/03 02:49:00;;;;;;;5.13;3.10;;;3.20;99.90;2.30;101000.00;;;;5031879;28;20175;-69
2021/12/03 02:51:34;;;;;;;2.23;1.70;;;3.10;99.90;2.30;101016.00;;;;5015390;28;20678;-70
2021/12/03 02:54:03;;;;;;;2.87;2.23;;;3.00;99.90;2.30;100999.00;;;;5016417;28;20202;-70
2021/12/03 02:56:34;;;;;;;2.97;1.17;;;3.00;99.90;2.40;100999.00;;;;5031195;28;20182;-69
2021/12/03 02:59:04;;;;;;;1.90;1.80;;;3.00;99.90;2.40;100982.00;;;;5032177;28;20174;-69
2021/12/03 03:01:33;;;;;;;2.07;1.87;;;2.90;99.90;2.20;100988.00;;;;5030203;28;20547;-69
2021/12/03 03:04:10;;;;;;;0.80;0.80;;;2.90;99.90;2.40;101004.00;;;;5031998;28;20248;-70
2021/12/03 03:06:42;;;;;;;2.77;2.60;;;2.90;99.90;2.80;100990.00;;;;5014935;28;20615;-71
2021/12/03 03:09:11;;;;;;;1.00;1.00;;;3.00;99.90;2.50;100982.00;;;;5031846;28;20632;-69
2021/12/03 03:11:39;;;;;;;1.83;1.73;;;3.00;99.90;2.60;100943.00;;;;5032587;28;20238;-70
2021/12/03 03:14:08;;;;;;;1.30;1.30;;;3.00;99.90;2.70;100983.00;;;;5031483;28;20193;-69
2021/12/03 03:16:35;;;;;;;0.60;0.60;;;3.00;99.90;3.00;100981.00;;;;5030033;28;20175;-69
2021/12/03 03:19:14;;;;;;;3.13;2.57;;;3.10;99.90;3.00;100992.00;;;;5034150;28;20623;-70
2021/12/03 03:21:44;;;;;;;0.97;0.97;;;3.30;99.90;2.70;100968.00;;;;5034162;28;20186;-69
2021/12/03 03:24:10;;;;;;;1.07;1.07;;;3.10;99.90;2.10;100986.00;;;;5035308;28;20245;-69
2021/12/03 03:26:47;;;;;;;3.37;1.60;;;2.90;99.90;2.60;100989.00;;;;5034285;28;20228;-70
2021/12/03 03:29:21;;;;;;;0.60;0.60;;;2.90;99.90;2.60;100985.00;;;;5034800;28;20178;-69
2021/12/03 03:31:54;;;;;;;1.10;1.10;;;2.90;99.90;2.50;100987.00;;;;5017942;28;20248;-70
2021/12/03 03:34:29;;;;;;;0.87;0.87;;;3.00;99.90;2.40;100966.00;;;;5018580;28;20546;-70
2021/12/03 03:36:55;;;;;;;1.10;1.10;;;2.90;99.90;2.30;100973.00;;;;5034835;28;20197;-70
2021/12/03 03:39:24;;;;;;;0.60;0.60;;;2.90;99.90;2.10;100968.00;;;;5034469;28;20186;-69
2021/12/03 03:41:55;;;;;;;0.63;0.63;;;2.70;99.90;2.60;100951.00;;;;5018954;28;20182;-69
2021/12/03 03:44:24;;;;;;;0.60;0.60;;;2.90;99.90;2.90;100957.00;;;;5018470;28;20593;-69
2021/12/03 03:46:56;;;;;;;0.90;0.90;;;3.00;99.90;3.40;100959.00;;;;5035562;28;20179;-69
2021/12/03 03:49:24;;;;;;;0.70;0.70;;;3.30;99.90;3.00;100958.00;;;;5035838;28;20174;-69
2021/12/03 03:51:52;;;;;;;1.30;1.30;;;3.30;99.90;3.30;100950.00;;;;5017989;28;20206;-69
2021/12/03 03:54:18;;;;;;;2.20;1.10;;;3.30;99.90;3.30;100948.00;;;;5036137;28;20190;-69
2021/12/03 03:56:46;;;;;;;0.67;0.67;;;3.50;99.90;2.50;100960.00;;;;5033369;28;20209;-68
2021/12/03 03:59:18;;;;;;;4.37;2.40;;;3.10;99.90;2.70;100918.00;;;;5034933;28;20506;-68
2021/12/03 04:01:50;;;;;;;1.00;1.00;;;3.00;99.90;3.30;100971.00;;;;5018361;28;20186;-69
2021/12/03 04:04:20;;;;;;;1.87;1.77;;;3.20;99.90;2.70;100950.00;;;;5035690;28;20187;-69
2021/12/03 04:06:51;;;;;;;1.10;1.10;;;3.10;99.90;2.90;100938.00;;;;5018176;28;20182;-68
2021/12/03 04:09:20;;;;;;;0.70;0.70;;;3.00;99.90;3.30;100944.00;;;;5034873;28;20162;-69
2021/12/03 04:11:47;;;;;;;0.90;0.90;;;3.20;99.90;2.80;100938.00;;;;5034263;28;20198;-69
2021/12/03 04:14:16;;;;;;;1.00;1.00;;;3.10;99.90;3.10;100928.00;;;;5034191;28;20241;-69
2021/12/03 04:16:48;;;;;;;0.97;0.97;;;3.10;99.90;2.70;100883.00;;;;5034108;28;20171;-69
2021/12/03 04:19:18;;;;;;;0.80;0.80;;;3.00;99.90;2.80;100936.00;;;;5034378;28;20252;-69
2021/12/03 04:21:49;;;;;;;1.00;1.00;;;3.00;99.90;3.10;100937.00;;;;5033057;28;20178;-69
2021/12/03 04:24:20;;;;;;;0.90;0.90;;;3.10;99.90;3.10;100914.00;;;;5035375;28;20171;-69
2021/12/03 04:26:47;;;;;;;0.80;0.80;;;3.10;99.90;3.30;100859.00;;;;5017488;28;20240;-69
2021/12/03 04:29:13;;;;;;;0.70;0.70;;;3.10;99.90;2.70;100904.00;;;;5033743;28;20639;-68
2021/12/03 04:31:45;;;;;;;0.90;0.90;;;3.00;99.90;2.80;100928.00;;;;5034444;28;20207;-68
2021/12/03 04:34:14;;;;;;;1.27;1.27;;;3.00;99.90;2.70;100917.00;;;;5033223;28;20186;-69
2021/12/03 04:36:41;;;;;;;3.13;1.43;;;2.90;99.90;2.90;100916.00;;;;5034169;28;20194;-69
2021/12/03 04:39:13;;;;;;;0.80;0.80;;;3.00;99.90;2.70;100897.00;;;;5034003;28;20179;-69
2021/12/03 04:41:39;;;;;;;1.70;1.63;;;3.00;99.90;2.30;100905.00;;;;5033723;28;20524;-69
2021/12/03 04:44:06;;;;;;;1.97;1.87;;;2.70;99.90;2.30;100847.00;;;;5033925;28;20197;-68
2021/12/03 04:46:36;;;;;;;0.80;0.80;;;2.70;99.90;2.70;100883.00;;;;5033196;28;20530;-68
2021/12/03 04:49:04;;;;;;;0.70;0.70;;;2.70;99.90;2.60;100906.00;;;;5032755;28;20248;-68
2021/12/03 04:51:30;;;;;;;0.70;0.70;;;2.80;99.90;3.00;100897.00;;;;5016960;28;20675;-68
2021/12/03 04:53:59;;;;;;;0.80;0.80;;;2.90;99.90;2.40;100918.00;;;;5033481;28;20178;-68
2021/12/03 04:56:28;;;;;;;0.70;0.70;;;2.90;99.90;2.90;100922.00;;;;5033534;28;20600;-68
2021/12/03 04:58:54;;;;;;;0.90;0.90;;;3.00;99.90;2.40;100922.00;;;;5032910;28;20232;-68
2021/12/03 05:01:22;;;;;;;0.70;0.70;;;2.90;99.90;3.00;100928.00;;;;5034023;28;20163;-69
2021/12/03 05:03:48;;;;;;;0.80;0.80;;;2.90;99.90;3.20;100925.00;;;;5032495;28;20222;-68
2021/12/03 05:06:29;;;;;;;1.00;1.00;;;3.10;99.90;2.60;100906.00;;;;5032432;28;20207;-68
2021/12/03 05:08:55;;;;;;;0.70;0.70;;;2.90;99.90;2.70;100919.00;;;;5034662;28;20196;-68
2021/12/03 05:11:27;;;;;;;0.80;0.80;;;2.90;99.90;2.80;100920.00;;;;5033149;28;20202;-68
2021/12/03 05:13:58;;;;;;;0.70;0.70;;;3.00;99.90;2.60;100857.00;;;;5034122;28;20202;-68
2021/12/03 05:16:33;;;;;;;0.80;0.80;;;2.90;99.90;2.50;100896.00;;;;5032989;28;20167;-68
2021/12/03 05:18:58;;;;;;;1.00;1.00;;;2.80;99.90;2.80;100896.00;;;;5034096;28;20189;-68
2021/12/03 05:21:28;;;;;;;0.90;0.90;;;2.90;99.90;2.40;100880.00;;;;5033201;28;20183;-68
2021/12/03 05:23:57;;;;;;;0.80;0.80;;;2.80;99.90;2.60;100891.00;;;;5031548;28;20705;-68
2021/12/03 05:26:23;;;;;;;0.70;0.70;;;2.80;99.90;2.70;100875.00;;;;5032288;28;20175;-68
2021/12/03 05:28:50;;;;;;;0.97;0.97;;;2.90;99.90;2.30;100870.00;;;;5033407;28;20171;-68
2021/12/03 05:31:21;;;;;;;0.70;0.70;;;2.70;99.90;2.30;100874.00;;;;5033611;28;20186;-67
2021/12/03 05:33:53;;;;;;;0.70;0.70;;;2.70;99.90;2.40;100880.00;;;;5031720;28;20628;-67
2021/12/03 05:36:18;;;;;;;0.93;0.93;;;2.80;99.90;2.70;100887.00;;;;5033779;28;20212;-67
2021/12/03 05:38:50;;;;;;;0.70;0.70;;;2.80;99.90;2.20;100881.00;;;;5015449;28;20187;-67
2021/12/03 05:41:16;;;;;;;0.83;0.83;;;2.70;99.90;2.30;100877.00;;;;5033406;28;20175;-67
2021/12/03 05:43:50;;;;;;;1.10;1.10;;;2.70;99.90;2.50;100904.00;;;;5033745;28;20221;-67
2021/12/03 05:46:26;;;;;;;0.70;0.70;;;2.80;99.90;2.50;100891.00;;;;5031452;28;20187;-68
2021/12/03 05:48:54;;;;;;;0.87;0.87;;;2.80;99.90;2.90;100851.00;;;;5032091;28;20178;-68
2021/12/03 05:51:26;;;;;;;0.70;0.70;;;3.00;99.90;3.10;100844.00;;;;5032562;28;20178;-68
2021/12/03 05:53:53;;;;;;;0.80;0.80;;;3.00;99.90;3.50;100896.00;;;;5032993;28;20213;-69
2021/12/03 05:56:19;;;;;;;0.70;0.70;;;3.40;99.90;2.40;100889.00;;;;5032678;28;20190;-68
2021/12/03 05:58:45;;;;;;;0.70;0.70;;;3.00;99.90;2.60;100886.00;;;;5033375;28;20640;-68
2021/12/03 06:01:15;;;;;;;1.70;1.33;;;2.90;99.90;2.80;100880.00;;;;5033257;28;20269;-68
2021/12/03 06:03:46;;;;;;;1.43;1.10;;;3.00;99.90;2.70;100869.00;;;;5032029;28;20195;-68
2021/12/03 06:06:13;;;;;;;0.87;0.87;;;3.00;99.90;2.40;100879.00;;;;5031438;28;20190;-68
2021/12/03 06:08:48;;;;;;;0.70;0.70;;;2.90;99.90;2.80;100836.00;;;;5032547;28;20198;-68
2021/12/03 06:11:23;;;;;;;2.93;2.70;;;3.00;99.90;2.20;100880.00;;;;5033666;28;20170;-68
2021/12/03 06:13:55;;;;;;;0.70;0.70;;;2.80;99.90;2.30;100883.00;;;;5032223;28;20186;-68
2021/12/03 06:16:21;;;;;;;2.30;1.20;;;2.80;99.90;2.50;100874.00;;;;5031717;28;20182;-69
2021/12/03 06:18:50;;;;;;;1.73;1.63;;;2.80;99.90;2.40;100875.00;;;;5031987;28;20670;-68
2021/12/03 06:21:19;;;;;;;0.83;0.83;;;2.80;99.90;2.40;100862.00;;;;5032723;28;20167;-68
2021/12/03 06:23:45;;;;;;;4.63;1.13;;;2.80;99.90;2.10;100873.00;;;;5032096;28;20179;-68
2021/12/03 06:26:11;;;;;;;1.00;1.00;;;2.70;99.90;2.40;100867.00;;;;5031010;28;20198;-68
2021/12/03 06:28:39;;;;;;;1.87;1.63;;;2.70;99.90;2.10;100816.00;;;;5031652;28;20167;-68
2021/12/03 06:31:06;;;;;;;0.80;0.80;;;2.60;99.90;1.90;100877.00;;;;5032087;28;20171;-68
2021/12/03 06:33:36;;;;;;;1.03;1.03;;;2.50;99.90;1.90;100879.00;;;;5031468;28;20182;-68
2021/12/03 06:36:06;;;;;;;0.60;0.60;;;2.50;99.90;1.80;100827.00;;;;5014739;28;20194;-68
2021/12/03 06:38:38;;;;;;;0.60;0.60;;;2.40;99.90;1.90;100870.00;;;;5032059;28;20198;-68
2021/12/03 06:41:08;;;;;;;0.90;0.90;;;2.40;99.90;2.00;100881.00;;;;5031939;28;20654;-68
2021/12/03 06:43:37;;;;;;;0.80;0.80;;;2.40;99.90;2.10;100891.00;;;;5031736;28;20182;-68
2021/12/03 06:46:09;;;;;;;0.90;0.90;;;2.50;99.90;2.00;100890.00;;;;5032828;28;20189;-68
2021/12/03 06:48:36;;;;;;;1.20;1.20;;;2.50;99.90;2.30;100873.00;;;;5015584;28;20216;-68
2021/12/03 06:51:02;;;;;;;0.80;0.80;;;2.60;99.90;2.30;100867.00;;;;5031094;28;20233;-68
2021/12/03 06:53:43;;;;;;;0.90;0.90;;;2.60;99.90;2.20;100871.00;;;;5016332;28;20198;-68
2021/12/03 06:56:21;;;;;;;0.70;0.70;;;2.70;99.90;2.30;100865.00;;;;5052526;28;20631;-68
2021/12/03 06:58:47;;;;;;;0.60;0.60;;;2.70;99.90;2.00;100812.00;;;;5036579;28;20646;-68
2021/12/03 07:01:16;;;;;;;2.23;1.53;;;2.60;99.90;2.00;100865.00;;;;5035311;28;20171;-68
2021/12/03 07:03:45;;;;;;;1.87;1.87;;;2.60;99.90;2.10;100870.00;;;;5037327;28;20167;-68
2021/12/03 07:06:12;;;;;;;1.63;1.17;;;2.60;99.90;2.60;100861.00;;;;5035267;28;20175;-68
2021/12/03 07:08:39;;;;;;;1.23;1.23;;;2.70;99.90;2.30;100818.00;;;;5035833;28;20167;-68
2021/12/03 07:11:08;;;;;;;0.90;0.90;;;2.70;99.90;2.00;100862.00;;;;5035606;28;20186;-68
2021/12/03 07:13:36;;;;;;;1.87;1.77;;;2.70;99.90;2.10;100865.00;;;;5036412;28;20187;-68
2021/12/03 07:16:05;;;;;;;1.10;1.10;;;2.60;99.90;2.30;100874.00;;;;5036806;28;20301;-68
2021/12/03 07:18:38;;;;;;;3.67;1.47;;;2.60;99.90;2.00;100863.00;;;;5036123;28;20162;-68
2021/12/03 07:21:07;;;;;;;0.80;0.80;;;2.60;99.90;2.70;100883.00;;;;5034961;28;20179;-68
2021/12/03 07:23:44;;;;;;;1.60;1.50;;;2.80;99.90;2.70;100879.00;;;;5034823;28;20186;-68
2021/12/03 07:26:10;;;;;;;2.17;1.43;;;2.90;99.90;2.40;100816.00;;;;5018490;28;20263;-68
2021/12/03 07:28:39;;;;;;;0.70;0.70;;;2.80;99.90;2.70;100851.00;;;;5034589;28;20182;-67
2021/12/03 07:31:14;;;;;;;1.47;1.37;;;2.90;99.90;2.40;100849.00;;;;5017333;28;20187;-68
2021/12/03 07:33:43;;;;;;;0.90;0.90;;;2.90;99.90;2.20;100836.00;;;;5035285;28;20257;-68
2021/12/03 07:36:14;;;;;;;1.10;1.10;;;2.80;99.90;2.30;100835.00;;;;5033351;28;20197;-68
2021/12/03 07:38:50;;;;;;;1.57;1.57;;;2.80;99.90;2.30;100835.00;;;;5034822;28;20219;-69
2021/12/03 07:41:21;;;;;;;1.20;1.20;;;2.70;99.90;2.30;100769.00;;;;5035252;28;20178;-68
2021/12/03 07:43:50;;;;;;;1.10;1.10;;;2.70;99.90;2.30;100827.00;;;;5034868;28;20186;-68
2021/12/03 07:46:20;;;;;;;0.77;0.77;;;2.70;99.90;2.30;100829.00;;;;5034955;28;20182;-68
2021/12/03 07:48:49;;;;;;;0.60;0.60;;;2.80;99.90;2.40;100829.00;;;;5028646;28;20190;-68
2021/12/03 07:51:19;;;;;;;0.70;0.70;;;2.80;99.90;2.70;100816.00;;;;5050224;28;20630;-68
2021/12/03 07:53:47;;;;;;;0.63;0.63;;;2.90;99.90;2.70;100812.00;;;;5035078;28;20178;-68
2021/12/03 07:56:16;;;;;;;0.73;0.73;;;2.90;99.90;2.50;100825.00;;;;5034885;28;20702;-68
2021/12/03 07:58:42;;;;;;;0.97;0.97;;;2.90;99.90;2.30;100818.00;;;;5036352;28;20175;-67
2021/12/03 08:01:10;;;;;;;0.60;0.60;;;2.80;99.90;2.40;100782.00;;;;5051636;28;20190;-68
2021/12/03 08:03:39;;;;;;;0.90;0.90;;;2.80;99.90;2.60;100818.00;;;;5034227;28;20183;-68
2021/12/03 08:06:12;;;;;;;3.80;1.33;;;2.90;99.90;2.50;100810.00;;;;5035238;28;20635;-68
2021/12/03 08:08:41;;;;;;;0.90;0.90;;;2.90;99.90;2.50;100806.00;;;;5034953;28;20175;-68
2021/12/03 08:11:08;;;;;;;0.73;0.73;;;3.00;99.90;2.50;100817.00;;;;5034495;28;20167;-68
2021/12/03 08:13:38;;;;;;;1.13;1.13;;;3.00;99.90;2.70;100818.00;;;;5034164;28;20214;-68
2021/12/03 08:16:06;;;;;;;0.60;0.60;;;3.10;99.90;2.70;100778.00;;;;5033818;28;20217;-68
2021/12/03 08:18:39;;;;;;;1.00;1.00;;;3.10;99.90;2.50;100765.00;;;;5033964;28;20281;-68
2021/12/03 08:21:05;;;;;;;1.53;1.47;;;3.10;99.90;2.70;100814.00;;;;5034662;28;20182;-68
2021/12/03 08:23:41;;;;;;;1.80;0.63;;;3.10;99.90;2.60;100806.00;;;;5033436;28;20186;-68
2021/12/03 08:26:09;;;;;;;6.70;1.47;;;3.10;99.90;2.80;100815.00;;;;5033532;28;20220;-69
2021/12/03 08:28:35;;;;;;;0.63;0.63;;;3.20;99.90;2.80;100738.00;;;;5034293;28;20194;-69
2021/12/03 08:31:11;;;;;;;0.87;0.87;;;3.20;99.90;3.00;100814.00;;;;5033632;28;20174;-69
2021/12/03 08:33:38;;;;;;;1.47;1.37;;;3.30;99.90;2.70;100808.00;;;;5034073;28;20720;-69
2021/12/03 08:36:05;;;;;;;1.13;1.13;;;3.30;99.90;2.70;100798.00;;;;5034957;28;20169;-68
2021/12/03 08:38:34;;;;;;;2.20;1.23;;;3.30;99.90;3.00;100795.00;;;;5035020;28;20285;-69
2021/12/03 08:41:01;;;;;;;1.17;1.13;;;3.40;99.90;3.00;100791.00;;;;5033378;28;20205;-70
2021/12/03 08:43:32;;;;;;;0.50;0.50;;;3.50;99.90;3.20;100806.00;;;;5033184;28;20186;-69
2021/12/03 08:46:09;;;;;;;2.33;1.10;;;3.50;99.90;3.20;100788.00;;;;5034336;28;20175;-67
2021/12/03 08:48:45;;;;;;;1.43;1.33;;;3.60;99.90;3.10;100784.00;;;;5033516;28;20169;-67
2021/12/03 08:56:34;;;;;;;1.03;1.00;;;3.60;99.90;2.90;100781.00;;;;5033384;28;20190;-67
2021/12/03 08:59:00;;;;;;;0.70;0.70;;;3.50;99.90;3.00;100766.00;;;;5050193;28;20191;-69
2021/12/03 09:01:29;;;;;;;5.70;3.43;;;3.50;99.90;3.10;100789.00;;;;5033420;28;20217;-67
2021/12/03 09:03:55;;;;;;;0.90;0.90;;;3.60;99.90;3.10;100782.00;;;;5033328;28;20224;-67
2021/12/03 09:06:21;;;;;;;1.37;1.27;;;3.60;99.90;3.30;100786.00;;;;5049128;28;20179;-67
2021/12/03 09:08:50;;;;;;;1.47;1.37;;;3.70;99.90;3.10;100789.00;;;;5032356;28;20191;-68
2021/12/03 09:11:18;;;;;;;1.07;1.07;;;3.70;99.90;3.20;100776.00;;;;5033331;28;20175;-68
2021/12/03 09:13:48;;;;;;;1.03;0.93;;;3.80;99.90;3.10;100780.00;;;;5049912;28;20667;-68
2021/12/03 09:16:18;;;;;;;1.03;0.93;;;3.80;99.90;3.50;100769.00;;;;5031199;28;20182;-68
2021/12/03 09:18:48;;;;;;;0.73;0.73;;;3.80;99.90;3.40;100783.00;;;;5034281;28;20183;-68
2021/12/03 09:21:19;;;;;;;1.53;1.43;;;3.90;99.90;3.70;100788.00;;;;5034407;28;20631;-68
2021/12/03 09:26:28;;;;;;;2.10;1.70;;;3.90;99.90;3.60;100754.00;;;;5032919;28;20171;-68
2021/12/03 09:29:07;;;;;;;1.77;1.43;;;4.00;99.90;3.50;100748.00;;;;5032678;28;20232;-68
2021/12/03 09:31:37;;;;;;;0.90;0.87;;;4.00;99.90;3.60;100753.00;;;;5032456;28;20252;-67
2021/12/03 09:34:09;;;;;;;4.20;2.43;;;4.00;99.90;3.70;100755.00;;;;5023446;28;20226;-69
2021/12/03 09:36:36;;;;;;;0.57;0.57;;;4.10;99.90;3.70;100746.00;;;;5032972;28;20217;-70
2021/12/03 09:39:06;;;;;;;1.57;1.47;;;4.20;99.90;3.60;100706.00;;;;5048898;28;20183;-70
2021/12/03 09:41:32;;;;;;;9.57;1.77;;;4.10;99.90;3.80;100743.00;;;;5033969;28;20185;-69
2021/12/03 09:43:59;;;;;;;0.53;0.53;;;4.20;99.90;3.80;100741.00;;;;5032703;28;20643;-70
2021/12/03 09:46:27;;;;;;;0.40;0.40;;;4.30;99.90;4.00;100734.00;;;;5016406;28;20218;-70
2021/12/03 09:51:37;;;;;;;1.50;1.40;;;4.40;99.90;4.00;100733.00;;;;5032511;28;20253;-69
2021/12/03 09:56:46;;;;;;;0.77;0.73;;;4.50;99.90;4.00;100740.00;;;;5033016;28;20619;-70
2021/12/03 10:04:56;;;;;;;2.17;1.57;;;4.40;99.90;3.90;100721.00;;;;5032386;28;20583;-69
2021/12/03 10:10:57;;;;;;;0.77;0.77;;;4.50;99.90;3.90;100725.00;;;;5032050;28;20194;-69
2021/12/03 10:18:58;;;;;;;0.60;0.60;;;4.50;99.90;4.40;100692.00;;;;5013266;28;20195;-69
2021/12/03 10:39:00;;;;;;;0.83;0.83;;;4.60;99.90;4.50;100656.00;;;;5069378;28;20672;-70
2021/12/03 10:52:20;;;;;;;2.67;1.20;;;4.80;99.90;4.50;100636.00;;;;5088971;28;20221;-70
2021/12/03 10:55:12;;;;;;;1.77;1.20;;;4.90;99.90;4.40;100643.00;;;;5090201;28;20275;-70
2021/12/03 10:57:57;;;;;;;4.57;1.90;;;4.90;99.90;4.60;100646.00;;;;5088324;28;20193;-70
2021/12/03 12:16:21;;;;;;;2.30;1.30;;;5.20;99.90;4.40;100485.00;;;;5075425;28;20197;-70
2021/12/03 13:07:42;;;;;;;0.80;0.80;;;4.80;99.90;4.30;100382.00;;;;5056280;28;20189;-68
2021/12/03 13:30:37;;;;;;;0.97;0.87;;;4.80;99.90;4.40;100410.00;;;;5080333;28;20220;-69
2021/12/03 14:06:25;;;;;;;1.23;1.20;;;4.90;99.90;4.40;100377.00;;;;5080516;28;20209;-67
2021/12/03 14:24:19;;;;;;;1.40;1.30;;;4.70;99.90;4.00;100362.00;;;;5064786;28;20199;-67
2021/12/03 14:37:17;;;;;;;2.93;2.70;;;4.70;99.90;4.30;100340.00;;;;5065121;28;20313;-67
2021/12/03 14:45:09;;;;;;;1.47;1.30;;;4.70;99.90;4.20;100325.00;;;;5082031;28;20304;-67
2021/12/03 14:48:07;;;;;;;1.13;1.07;;;4.70;99.90;4.40;100332.00;;;;5064742;28;20187;-67
2021/12/03 14:56:19;;;;;;;0.50;0.50;;;4.70;99.90;4.50;100295.00;;;;5055547;28;20196;-68
2021/12/03 14:59:04;;;;;;;1.50;1.40;;;4.80;99.90;4.10;100355.00;;;;5045950;28;20677;-68
2021/12/03 15:07:13;;;;;;;0.40;0.40;;;4.70;99.90;4.80;100295.00;;;;5063703;28;20964;-68
2021/12/03 15:09:41;;;;;;;0.30;0.30;;;4.90;99.90;4.30;100334.00;;;;5061715;28;20185;-68
2021/12/03 15:25:23;;;;;;;1.00;1.00;;;4.70;99.90;4.20;100309.00;;;;5078570;28;20255;-68
2021/12/03 15:35:52;;;;;;;1.73;1.63;;;4.70;99.90;4.30;100306.00;;;;5095636;28;20258;-68
2021/12/03 16:08:29;;;;;;;1.33;1.23;;;4.70;99.90;4.10;100269.00;;;;5066491;28;20205;-74
2021/12/03 16:11:23;;;;;;;1.10;1.10;;;4.60;99.90;4.20;100266.00;;;;5068056;28;20274;-74
2021/12/03 16:47:01;;;;;;;0.30;0.30;;;4.70;99.90;4.30;100223.00;;;;5056237;28;20201;-72
2021/12/03 16:52:22;;;;;;;0.70;0.70;;;4.80;99.90;4.50;100217.00;;;;5068876;28;20247;-73
2021/12/03 16:54:55;;;;;;;0.57;0.57;;;4.80;99.90;4.50;100219.00;;;;5082151;28;20610;-73
2021/12/03 16:57:28;;;;;;;0.40;0.40;;;4.80;99.90;4.40;100201.00;;;;5065270;28;20539;-73
2021/12/03 16:59:55;;;;;;;0.50;0.50;;;4.80;99.90;4.30;100178.00;;;;5050096;28;20192;-72
2021/12/03 17:02:30;;;;;;;0.50;0.50;;;4.80;99.90;4.60;100182.00;;;;5064778;28;20592;-72
2021/12/03 17:05:17;;;;;;;0.57;0.57;;;4.80;99.90;4.50;100151.00;;;;5066352;28;20238;-73
2021/12/03 18:00:37;;;;;;;0.40;0.40;;;4.90;99.90;4.50;100114.00;;;;5052287;28;20239;-74
2021/12/03 18:03:13;;;;;;;1.53;1.43;;;4.90;99.90;4.40;100116.00;;;;5037749;28;20278;-73
2021/12/03 18:06:05;;;;;;;1.07;0.93;;;4.90;99.90;4.50;100109.00;;;;5035487;28;20236;-74
2021/12/03 18:43:22;;;;;;;0.43;0.43;;;4.80;99.90;4.40;100119.00;;;;5071565;28;20184;-73
2021/12/03 18:48:56;;;;;;;1.60;1.50;;;4.90;99.90;4.70;100097.00;;;;5064044;28;20189;-73
2021/12/03 18:56:48;;;;;;;0.60;0.57;;;4.80;99.90;4.50;100081.00;;;;5084692;28;20556;-73
2021/12/03 18:59:17;;;;;;;0.50;0.50;;;4.90;99.90;4.50;100097.00;;;;5068709;28;20185;-73